createdAt,value
2022-07-26T05:28:57.037Z,87.04
2022-07-26T05:34:01.177Z,85.92
2022-07-26T05:39:05.644Z,84.82
2022-07-26T05:44:11.482Z,82.90
2022-07-26T05:49:17.029Z,80.97
2022-07-26T05:54:25.537Z,79.33
2022-07-26T05:59:31.259Z,77.98
2022-07-26T06:04:36.140Z,75.81
2022-07-26T06:09:40.243Z,77.35
2022-07-26T06:14:46.069Z,77.41
2022-07-26T06:19:51.030Z,76.57
2022-07-26T06:24:55.013Z,76.89
2022-07-26T06:30:00.411Z,76.38
2022-07-26T06:35:04.851Z,72.49
2022-07-26T06:40:10.905Z,69.78
2022-07-26T06:45:16.959Z,61.42
2022-07-26T06:50:25.759Z,59.79
2022-07-26T06:55:29.791Z,61.72
2022-07-26T07:00:35.535Z,57.51
2022-07-26T07:05:39.484Z,49.13
2022-07-26T07:10:43.646Z,42.85
2022-07-26T07:15:49.622Z,46.46
2022-07-26T07:20:53.656Z,54.82
2022-07-26T07:25:57.879Z,55.27
2022-07-26T07:31:03.769Z,54.13
2022-07-26T07:36:08.627Z,55.46
2022-07-26T07:41:12.741Z,57.68
2022-07-26T07:46:18.207Z,62.70
2022-07-26T07:51:22.188Z,55.51
2022-07-26T07:56:26.520Z,46.83
2022-07-26T08:01:39.554Z,40.85
2022-07-26T08:06:47.702Z,43.65
2022-07-26T08:11:55.217Z,46.65
2022-07-26T08:17:00.959Z,40.92
2022-07-26T08:22:05.920Z,37.82
2022-07-26T08:27:10.270Z,35.19
2022-07-26T08:32:16.115Z,38.86
2022-07-26T08:37:20.425Z,36.12
2022-07-26T08:42:25.116Z,35.70
2022-07-26T08:47:35.384Z,35.08
2022-07-26T08:52:43.408Z,32.94
2022-07-26T08:57:47.843Z,31.29
2022-07-26T09:02:54.896Z,30.04
2022-07-26T09:07:59.988Z,30.01
2022-07-26T09:13:04.160Z,29.86
2022-07-26T09:18:27.028Z,29.03
2022-07-26T09:23:41.164Z,31.33
2022-07-26T09:28:45.424Z,27.24
2022-07-26T09:33:52.466Z,26.16
2022-07-26T09:38:59.123Z,28.03
2022-07-26T09:44:06.840Z,30.70
2022-07-26T09:49:19.836Z,28.31
2022-07-26T09:54:33.598Z,23.89
2022-07-26T09:59:37.647Z,27.40
2022-07-26T10:04:44.491Z,29.99
2022-07-26T10:09:57.344Z,29.05
2022-07-26T10:15:01.411Z,25.63
2022-07-26T10:20:10.649Z,21.24
2022-07-26T10:25:48.798Z,24.48
2022-07-26T10:30:53.400Z,25.57
2022-07-26T10:36:00.505Z,22.93
2022-07-26T10:41:07.936Z,21.44
2022-07-26T10:46:28.318Z,24.13
2022-07-26T10:51:36.500Z,24.86
2022-07-26T10:56:45.324Z,23.50
2022-07-26T11:08:54.651Z,21.84
2022-07-26T11:15:27.764Z,20.52
2022-07-26T11:21:17.424Z,19.97
2022-07-26T11:26:26.407Z,20.56
2022-07-26T11:31:51.534Z,20.36
2022-07-26T11:37:05.343Z,17.36
2022-07-26T11:42:21.343Z,17.83
2022-07-26T11:47:26.701Z,15.36
2022-07-26T11:52:39.942Z,15.67
2022-07-26T11:57:49.263Z,17.00
2022-07-26T12:02:56.060Z,17.65
2022-07-26T12:08:04.274Z,15.21
2022-07-26T12:13:12.483Z,15.87
2022-07-26T12:18:24.519Z,14.58
2022-07-26T12:23:41.080Z,15.73
2022-07-26T12:28:46.548Z,15.77
2022-07-26T12:33:51.070Z,14.25
2022-07-26T12:38:56.063Z,14.71
2022-07-26T12:44:01.523Z,13.67
2022-07-26T12:49:15.636Z,13.68
2022-07-26T12:54:20.468Z,15.73
2022-07-26T12:59:42.290Z,15.78
2022-07-26T13:04:56.874Z,15.73
2022-07-26T13:10:32.023Z,14.11
2022-07-26T13:15:35.980Z,14.37
2022-07-26T13:26:01.831Z,14.53
2022-07-26T13:27:15.347Z,14.13
2022-07-26T13:32:27.071Z,12.96
2022-07-26T13:38:28.491Z,13.19
2022-07-26T13:44:00.965Z,12.59
2022-07-26T13:49:44.624Z,12.45
2022-07-26T13:55:00.068Z,14.06
2022-07-26T14:00:08.033Z,13.72
2022-07-26T14:05:55.900Z,13.49
2022-07-26T14:11:52.553Z,13.97
2022-07-26T14:16:57.132Z,13.79
2022-07-26T14:22:19.732Z,13.13
2022-07-26T14:27:24.891Z,12.69
2022-07-26T14:32:29.411Z,13.43
2022-07-26T14:38:04.772Z,13.78
2022-07-26T14:43:09.600Z,14.07
2022-07-26T14:56:50.828Z,14.17
2022-07-26T15:02:06.991Z,14.70
2022-07-26T15:07:19.176Z,13.43
2022-07-26T15:12:25.109Z,14.23
2022-07-26T15:17:30.146Z,13.68
2022-07-26T15:22:35.232Z,13.97
2022-07-26T15:27:41.139Z,14.22
2022-07-26T15:32:45.851Z,14.73
2022-07-26T15:37:52.038Z,14.33
2022-07-26T15:42:58.361Z,13.42
2022-07-26T15:48:17.100Z,14.39
2022-07-26T15:53:46.451Z,14.51
2022-07-26T15:58:57.283Z,14.59
2022-07-26T16:04:11.913Z,13.90
2022-07-26T16:09:19.719Z,15.92
2022-07-26T16:14:26.343Z,16.39
2022-07-26T16:19:31.135Z,14.65
2022-07-26T16:24:41.327Z,14.48
2022-07-26T16:29:57.757Z,14.05
2022-07-26T16:35:01.969Z,14.54
2022-07-26T16:40:08.282Z,15.49
2022-07-26T16:45:13.953Z,14.04
2022-07-26T16:50:27.757Z,13.34
2022-07-26T16:55:36.351Z,15.03
2022-07-26T17:00:54.516Z,14.98
2022-07-26T17:06:06.437Z,16.87
2022-07-26T17:11:11.580Z,16.37
2022-07-26T17:16:21.365Z,17.83
2022-07-26T17:21:29.039Z,22.56
2022-07-26T17:26:33.438Z,25.35
2022-07-26T17:31:42.934Z,27.37
2022-07-26T17:36:46.972Z,28.72
2022-07-26T17:41:51.415Z,29.44
2022-07-26T17:46:58.624Z,30.90
2022-07-26T17:52:02.864Z,32.15
2022-07-26T17:57:08.409Z,31.80
2022-07-26T18:02:14.217Z,32.28
2022-07-26T18:07:19.484Z,31.78
2022-07-26T18:12:23.512Z,32.42
2022-07-26T18:17:29.084Z,32.47
2022-07-26T18:22:33.583Z,32.18
2022-07-26T18:27:37.751Z,32.83
2022-07-26T18:32:43.160Z,33.07
2022-07-26T18:37:47.561Z,33.14
2022-07-26T18:42:51.603Z,33.37
2022-07-26T18:47:57.116Z,34.29
2022-07-26T18:53:04.025Z,34.66
2022-07-26T18:58:08.599Z,34.71
2022-07-26T19:03:15.095Z,34.75
2022-07-26T19:08:19.037Z,36.04
2022-07-26T19:13:25.951Z,36.34
2022-07-26T19:18:31.508Z,36.71
2022-07-26T19:23:36.109Z,37.47
2022-07-26T19:28:40.313Z,38.05
2022-07-26T19:33:45.981Z,38.85
2022-07-26T19:38:50.242Z,39.94
2022-07-26T19:43:54.492Z,40.36
2022-07-26T19:49:01.003Z,41.63
2022-07-26T19:54:05.689Z,42.41
2022-07-26T19:59:09.904Z,42.69
2022-07-26T20:04:15.872Z,43.26
2022-07-26T20:09:20.123Z,42.93
2022-07-26T20:14:24.577Z,42.47
2022-07-26T20:19:29.968Z,42.41
2022-07-26T20:24:35.679Z,43.08
2022-07-26T20:29:39.798Z,42.79
2022-07-26T20:34:45.255Z,43.97
2022-07-26T20:39:49.375Z,44.37
2022-07-26T20:44:53.824Z,44.20
2022-07-26T20:50:03.414Z,44.34
2022-07-26T20:55:09.126Z,44.57
2022-07-26T21:00:15.028Z,45.07
2022-07-26T21:05:22.365Z,45.80
2022-07-26T21:10:30.231Z,46.27
2022-07-26T21:15:46.518Z,46.56
2022-07-26T21:20:53.218Z,46.95
2022-07-26T21:26:00.330Z,47.30
2022-07-26T21:31:05.258Z,47.31
2022-07-26T21:36:10.748Z,46.96
2022-07-26T21:41:15.913Z,46.45
2022-07-26T21:46:20.190Z,46.71
2022-07-26T21:51:25.694Z,47.96
2022-07-26T21:56:29.892Z,48.67
2022-07-26T22:01:34.165Z,49.94
2022-07-26T22:06:41.308Z,49.94
2022-07-26T22:11:45.743Z,50.96
2022-07-26T22:16:49.850Z,51.06
2022-07-26T22:21:55.301Z,51.88
2022-07-26T22:27:54.686Z,52.60
2022-07-26T22:33:11.900Z,53.06
2022-07-26T22:38:17.231Z,53.24
2022-07-26T22:43:21.465Z,53.93
2022-07-26T22:48:25.399Z,53.85
2022-07-26T22:53:30.970Z,53.25
2022-07-26T23:04:37.303Z,53.99
2022-07-26T23:09:43.191Z,53.49
2022-07-26T23:14:47.004Z,53.28
2022-07-26T23:19:51.395Z,53.69
2022-07-26T23:24:56.893Z,53.17
2022-07-26T23:30:00.969Z,53.79
2022-07-26T23:35:05.634Z,54.50
2022-07-26T23:40:12.841Z,55.25
2022-07-26T23:45:16.904Z,56.15
2022-07-26T23:50:24.609Z,55.56
2022-07-26T23:55:35.607Z,55.64
